createdAt,value
2023-02-27T00:01:00.009Z,59.49
2023-02-27T00:03:26.332Z,59.00
2023-02-27T00:05:52.641Z,59.12
2023-02-27T00:08:18.926Z,59.09
2023-02-27T00:10:45.215Z,59.16
2023-02-27T00:13:11.521Z,59.96
2023-02-27T00:15:37.810Z,60.77
2023-02-27T00:18:04.093Z,60.03
2023-02-27T00:20:30.401Z,58.86
2023-02-27T00:22:56.697Z,59.26
2023-02-27T00:25:22.987Z,59.13
2023-02-27T00:27:49.290Z,59.18
2023-02-27T00:30:15.574Z,59.54
2023-02-27T00:32:41.912Z,58.91
2023-02-27T00:35:08.250Z,61.11
2023-02-27T00:37:34.572Z,58.59
2023-02-27T00:40:00.857Z,58.96
2023-02-27T00:42:27.181Z,60.35
2023-02-27T00:44:53.473Z,58.83
2023-02-27T00:47:19.761Z,59.31
2023-02-27T00:49:46.070Z,59.71
2023-02-27T00:52:12.354Z,58.91
2023-02-27T00:54:38.645Z,59.24
2023-02-27T00:57:04.961Z,58.89
2023-02-27T00:59:31.247Z,59.15
2023-02-27T01:01:57.527Z,59.12
2023-02-27T01:04:23.822Z,59.92
2023-02-27T01:06:50.110Z,60.03
2023-02-27T01:09:16.414Z,59.23
2023-02-27T01:11:42.707Z,59.38
2023-02-27T01:14:08.998Z,59.71
2023-02-27T01:16:35.362Z,59.89
2023-02-27T01:19:01.679Z,59.54
2023-02-27T01:21:28.269Z,59.06
2023-02-27T01:23:54.705Z,59.81
2023-02-27T01:26:21.014Z,59.32
2023-02-27T01:28:47.376Z,59.20
2023-02-27T01:31:13.864Z,59.12
2023-02-27T01:33:40.234Z,60.21
2023-02-27T01:36:06.537Z,60.18
2023-02-27T01:38:32.850Z,60.51
2023-02-27T01:40:59.201Z,61.34
2023-02-27T01:43:25.496Z,60.44
2023-02-27T01:45:51.822Z,60.40
2023-02-27T01:48:18.181Z,60.25
2023-02-27T01:50:44.465Z,60.31
2023-02-27T01:53:10.753Z,60.28
2023-02-27T01:55:37.058Z,60.57
2023-02-27T01:58:03.357Z,60.21
2023-02-27T02:00:29.656Z,60.69
2023-02-27T02:02:55.953Z,59.94
2023-02-27T02:05:22.230Z,60.47
2023-02-27T02:07:48.510Z,60.38
2023-02-27T02:10:14.817Z,60.09
2023-02-27T02:12:41.093Z,59.86
2023-02-27T02:15:07.400Z,59.36
2023-02-27T02:17:33.710Z,59.89
2023-02-27T02:19:59.998Z,60.50
2023-02-27T02:22:26.272Z,60.34
2023-02-27T02:24:52.589Z,59.48
2023-02-27T02:27:18.883Z,59.12
2023-02-27T02:29:45.195Z,59.66
2023-02-27T02:32:11.541Z,59.57
2023-02-27T02:34:37.852Z,59.58
2023-02-27T02:37:04.149Z,59.80
2023-02-27T02:39:30.449Z,59.70
2023-02-27T02:41:56.739Z,59.68
2023-02-27T02:44:23.021Z,59.60
2023-02-27T02:46:49.357Z,61.12
2023-02-27T02:49:15.670Z,60.35
2023-02-27T02:51:41.959Z,60.93
2023-02-27T02:54:08.269Z,60.45
2023-02-27T02:56:34.550Z,59.87
2023-02-27T02:59:00.859Z,60.52
2023-02-27T03:01:27.666Z,59.99
2023-02-27T03:03:54.106Z,60.17
2023-02-27T03:06:20.402Z,59.88
2023-02-27T03:08:46.715Z,60.22
2023-02-27T03:11:13.002Z,60.51
2023-02-27T03:13:39.288Z,60.74
2023-02-27T03:16:05.642Z,61.05
2023-02-27T03:18:31.952Z,60.66
2023-02-27T03:20:58.241Z,60.14
2023-02-27T03:23:24.537Z,60.44
2023-02-27T03:25:50.825Z,60.80
2023-02-27T03:28:17.107Z,60.53
2023-02-27T03:30:43.498Z,60.71
2023-02-27T03:33:09.844Z,61.86
2023-02-27T03:35:36.123Z,60.64
2023-02-27T03:38:02.427Z,62.34
2023-02-27T03:40:28.714Z,61.39
2023-02-27T03:42:55.008Z,60.78
2023-02-27T03:45:21.336Z,61.08
2023-02-27T03:47:47.626Z,59.98
2023-02-27T03:50:13.921Z,60.99
2023-02-27T03:52:40.289Z,60.62
2023-02-27T03:55:06.578Z,60.24
2023-02-27T03:57:32.873Z,60.56
2023-02-27T03:59:59.181Z,60.46
2023-02-27T04:02:25.475Z,60.99
2023-02-27T04:04:51.761Z,60.80
2023-02-27T04:07:18.050Z,61.14
2023-02-27T04:09:44.349Z,60.79
2023-02-27T04:12:10.637Z,60.18
2023-02-27T04:14:36.949Z,60.08
2023-02-27T04:17:03.219Z,60.71
2023-02-27T04:19:29.500Z,60.60
2023-02-27T04:21:55.808Z,61.63
2023-02-27T04:24:22.096Z,60.13
2023-02-27T04:26:48.403Z,60.04
2023-02-27T04:29:14.718Z,60.13
2023-02-27T04:31:41.107Z,60.35
2023-02-27T04:34:07.417Z,61.19
2023-02-27T04:36:33.986Z,59.94
2023-02-27T04:39:00.268Z,60.28
2023-02-27T04:41:26.838Z,60.92
2023-02-27T04:43:53.362Z,60.51
2023-02-27T04:46:19.647Z,59.45
2023-02-27T04:48:45.932Z,59.53
2023-02-27T04:51:12.229Z,60.79
2023-02-27T04:53:38.552Z,59.82
2023-02-27T04:56:04.849Z,59.35
2023-02-27T04:58:31.203Z,59.60
2023-02-27T05:00:57.489Z,59.47
2023-02-27T05:03:23.764Z,59.73
2023-02-27T05:05:50.056Z,59.76
2023-02-27T05:08:16.367Z,59.69
2023-02-27T05:10:42.652Z,59.39
2023-02-27T05:13:08.955Z,60.41
2023-02-27T05:15:35.284Z,59.69
2023-02-27T05:18:01.589Z,59.27
2023-02-27T05:20:29.834Z,60.15
2023-02-27T05:22:56.196Z,60.17
2023-02-27T05:25:22.484Z,60.31
2023-02-27T05:27:48.790Z,60.70
2023-02-27T05:30:15.077Z,60.22
2023-02-27T05:32:41.376Z,59.95
2023-02-27T05:35:07.694Z,60.42
2023-02-27T05:37:33.976Z,60.88
2023-02-27T05:40:00.275Z,60.57
2023-02-27T05:42:26.605Z,60.95
2023-02-27T05:44:52.909Z,60.38
2023-02-27T05:47:19.200Z,60.43
2023-02-27T05:49:45.500Z,60.49
2023-02-27T05:52:11.780Z,59.89
2023-02-27T05:54:38.109Z,60.08
2023-02-27T05:57:04.419Z,61.13
2023-02-27T05:59:30.724Z,60.41
2023-02-27T06:01:57.068Z,60.97
2023-02-27T06:04:23.417Z,60.32
2023-02-27T06:06:49.696Z,60.63
2023-02-27T06:09:15.992Z,60.01
2023-02-27T06:11:42.291Z,60.83
2023-02-27T06:14:08.562Z,60.22
2023-02-27T06:16:34.877Z,60.46
2023-02-27T06:19:02.979Z,60.58
2023-02-27T06:21:30.324Z,59.65
2023-02-27T06:23:56.611Z,60.28
2023-02-27T06:26:23.186Z,60.24
2023-02-27T06:28:49.499Z,60.67
2023-02-27T06:31:15.849Z,61.68
2023-02-27T06:33:42.193Z,61.04
2023-02-27T06:36:08.586Z,60.83
2023-02-27T06:38:34.927Z,59.93
2023-02-27T06:41:01.225Z,60.47
2023-02-27T06:43:27.519Z,60.46
2023-02-27T06:45:53.867Z,59.75
2023-02-27T06:48:20.213Z,60.71
2023-02-27T06:50:46.510Z,60.34
2023-02-27T06:53:12.820Z,62.46
2023-02-27T06:55:39.145Z,60.76
2023-02-27T06:58:05.423Z,60.60
2023-02-27T07:00:31.715Z,60.35
2023-02-27T07:02:58.042Z,60.66
2023-02-27T07:05:24.334Z,60.66
2023-02-27T07:07:50.761Z,61.22
2023-02-27T07:10:17.114Z,60.13
2023-02-27T07:12:43.412Z,59.72
2023-02-27T07:15:09.705Z,60.04
2023-02-27T07:17:36.009Z,59.56
2023-02-27T07:20:02.292Z,60.23
2023-02-27T07:22:28.578Z,60.25
2023-02-27T07:24:54.876Z,60.66
2023-02-27T07:27:21.174Z,60.25
2023-02-27T07:29:47.453Z,60.65
2023-02-27T07:32:13.793Z,60.70
2023-02-27T07:34:40.110Z,60.75
2023-02-27T07:37:06.403Z,60.72
2023-02-27T07:39:32.696Z,60.67
2023-02-27T07:41:58.959Z,60.88
2023-02-27T07:44:25.261Z,60.60
2023-02-27T07:46:51.594Z,60.63
2023-02-27T07:49:17.933Z,60.93
2023-02-27T07:51:44.233Z,60.69
2023-02-27T07:54:10.537Z,61.02
2023-02-27T07:56:36.830Z,61.30
2023-02-27T07:59:03.171Z,60.61
2023-02-27T08:01:29.530Z,60.77
2023-02-27T08:03:55.844Z,61.02
2023-02-27T08:06:22.121Z,60.78
2023-02-27T08:08:48.425Z,61.50
2023-02-27T08:11:14.714Z,61.26
2023-02-27T08:14:00.508Z,61.20
2023-02-27T08:16:27.771Z,60.41
2023-02-27T08:18:54.357Z,60.85
2023-02-27T08:21:20.657Z,60.43
2023-02-27T08:23:46.961Z,60.88
2023-02-27T08:26:13.249Z,60.11
2023-02-27T08:28:39.529Z,60.64
2023-02-27T08:31:05.881Z,60.90
2023-02-27T08:33:32.186Z,60.71
2023-02-27T08:35:58.499Z,60.39
2023-02-27T08:38:26.378Z,61.50
2023-02-27T08:40:52.798Z,60.64
2023-02-27T08:43:19.082Z,60.68
2023-02-27T08:45:45.440Z,60.65
2023-02-27T08:48:11.752Z,61.02
2023-02-27T08:50:38.115Z,60.10
2023-02-27T08:53:04.432Z,59.94
2023-02-27T08:55:30.746Z,60.53
2023-02-27T08:57:57.035Z,61.02
2023-02-27T09:00:23.403Z,61.70
2023-02-27T09:02:50.023Z,61.55
2023-02-27T09:05:16.375Z,61.34
2023-02-27T09:07:42.704Z,60.79
2023-02-27T09:10:08.982Z,60.95
2023-02-27T09:12:35.288Z,60.62
2023-02-27T09:15:01.600Z,61.01
2023-02-27T09:17:27.906Z,60.67
2023-02-27T09:19:56.524Z,60.98
2023-02-27T09:22:23.695Z,60.67
2023-02-27T09:24:49.996Z,61.07
2023-02-27T09:27:16.471Z,61.08
2023-02-27T09:29:42.795Z,60.97
2023-02-27T09:32:09.203Z,60.39
2023-02-27T09:34:35.514Z,60.77
2023-02-27T09:37:01.817Z,61.23
2023-02-27T09:39:28.088Z,61.68
2023-02-27T09:41:54.370Z,61.51
2023-02-27T09:44:27.944Z,60.38
2023-02-27T09:46:59.855Z,60.60
2023-02-27T09:49:26.141Z,60.17
2023-02-27T09:51:53.435Z,60.90
2023-02-27T09:54:19.844Z,61.07
2023-02-27T09:56:46.147Z,60.30
2023-02-27T09:59:12.447Z,61.07
2023-02-27T10:01:38.753Z,60.66
2023-02-27T10:04:05.057Z,60.85
2023-02-27T10:06:31.332Z,60.57
2023-02-27T10:08:57.608Z,60.46
2023-02-27T10:11:23.920Z,60.07
2023-02-27T10:13:50.219Z,59.85
2023-02-27T10:16:16.564Z,60.27
2023-02-27T10:18:42.913Z,60.01
2023-02-27T10:21:09.233Z,59.73
2023-02-27T10:23:35.528Z,60.80
2023-02-27T10:26:01.996Z,60.23
2023-02-27T10:28:28.337Z,60.36
2023-02-27T10:30:54.700Z,60.83
2023-02-27T10:33:21.078Z,60.04
2023-02-27T10:35:47.381Z,60.54
2023-02-27T10:38:13.689Z,58.95
2023-02-27T10:40:39.999Z,59.39
2023-02-27T10:43:06.565Z,59.36
2023-02-27T10:45:32.902Z,60.00
2023-02-27T10:47:59.292Z,60.31
2023-02-27T10:50:25.590Z,60.07
2023-02-27T10:52:51.889Z,60.23
2023-02-27T10:55:18.192Z,59.73
2023-02-27T10:57:44.487Z,59.83
2023-02-27T11:00:10.765Z,59.52
2023-02-27T11:02:37.269Z,59.27
2023-02-27T11:05:03.676Z,60.13
2023-02-27T11:07:29.971Z,60.40
2023-02-27T11:09:56.280Z,59.73
2023-02-27T11:12:22.663Z,59.98
2023-02-27T11:14:48.988Z,59.37
2023-02-27T11:17:15.298Z,59.94
2023-02-27T11:19:41.581Z,59.40
2023-02-27T11:22:07.874Z,59.71
2023-02-27T11:24:34.186Z,59.48
2023-02-27T11:27:00.477Z,60.05
2023-02-27T11:29:26.758Z,59.97
2023-02-27T11:31:53.151Z,59.41
2023-02-27T11:34:19.481Z,59.41
2023-02-27T11:36:45.781Z,59.18
2023-02-27T11:39:12.085Z,60.01
2023-02-27T11:41:38.364Z,60.26
2023-02-27T11:44:04.645Z,59.84
2023-02-27T11:46:47.829Z,59.80
2023-02-27T11:49:14.887Z,60.09
2023-02-27T11:51:41.205Z,59.86
2023-02-27T11:54:07.488Z,60.47
2023-02-27T11:56:35.989Z,59.91
2023-02-27T11:59:02.499Z,59.04
2023-02-27T12:01:29.038Z,59.43
2023-02-27T12:03:55.614Z,59.34
2023-02-27T12:06:21.914Z,59.07
2023-02-27T12:08:48.213Z,59.32
2023-02-27T12:11:14.902Z,59.69
2023-02-27T12:13:41.313Z,59.68
2023-02-27T12:16:07.698Z,58.83
2023-02-27T12:18:34.085Z,59.22
2023-02-27T12:21:00.374Z,59.29
2023-02-27T12:23:26.669Z,60.39
2023-02-27T12:25:52.956Z,59.88
2023-02-27T12:28:19.251Z,59.53
2023-02-27T12:30:45.526Z,59.54
2023-02-27T12:33:11.801Z,59.97
2023-02-27T12:35:38.184Z,59.87
2023-02-27T12:38:06.951Z,60.19
2023-02-27T12:40:34.762Z,60.31
2023-02-27T12:43:01.071Z,59.88
2023-02-27T12:45:27.400Z,59.93
2023-02-27T12:47:53.702Z,60.01
2023-02-27T12:50:20.010Z,59.92
2023-02-27T12:52:46.304Z,60.10
2023-02-27T12:55:12.683Z,59.53
2023-02-27T12:57:38.977Z,60.24
2023-02-27T13:00:05.264Z,60.45
2023-02-27T13:02:31.559Z,59.84
2023-02-27T13:04:57.873Z,60.52
2023-02-27T13:07:24.173Z,60.06
2023-02-27T13:09:50.475Z,60.54
2023-02-27T13:12:16.778Z,60.42
2023-02-27T13:14:43.080Z,60.77
2023-02-27T13:17:09.426Z,60.18
2023-02-27T13:19:35.767Z,60.60
2023-02-27T13:22:02.046Z,60.36
2023-02-27T13:24:28.350Z,60.67
2023-02-27T13:26:54.667Z,60.75
2023-02-27T13:29:20.957Z,61.17
2023-02-27T13:31:47.354Z,60.75
2023-02-27T13:34:13.697Z,60.66
2023-02-27T13:36:39.999Z,60.27
2023-02-27T13:39:06.296Z,60.61
2023-02-27T13:41:34.847Z,60.77
2023-02-27T13:44:02.212Z,60.65
2023-02-27T13:46:28.509Z,61.16
2023-02-27T13:48:54.921Z,60.56
2023-02-27T13:51:21.218Z,60.56
2023-02-27T13:53:47.506Z,61.09
2023-02-27T13:56:13.800Z,60.81
2023-02-27T13:58:40.104Z,60.79
2023-02-27T14:01:06.411Z,61.21
2023-02-27T14:03:32.713Z,61.02
2023-02-27T14:05:59.017Z,60.62
2023-02-27T14:08:25.296Z,60.69
2023-02-27T14:10:51.598Z,60.79
2023-02-27T14:13:17.888Z,60.46
2023-02-27T14:15:44.199Z,60.58
2023-02-27T14:18:20.100Z,60.77
2023-02-27T14:20:49.201Z,60.79
2023-02-27T14:23:15.606Z,61.25
2023-02-27T14:25:41.906Z,60.82
2023-02-27T14:28:08.199Z,61.48
2023-02-27T14:30:34.512Z,61.70
2023-02-27T14:33:00.785Z,61.76
2023-02-27T14:35:27.117Z,63.58
2023-02-27T14:37:53.468Z,62.11
2023-02-27T14:40:28.211Z,62.40
2023-02-27T14:42:55.928Z,62.35
2023-02-27T14:45:24.335Z,62.77
2023-02-27T14:47:50.862Z,61.74
2023-02-27T14:50:17.163Z,62.41
2023-02-27T14:52:43.450Z,61.87
2023-02-27T14:55:09.742Z,62.19
2023-02-27T14:57:36.087Z,62.43
2023-02-27T15:00:02.409Z,62.18
2023-02-27T15:02:28.695Z,61.86
2023-02-27T15:04:54.994Z,62.19
2023-02-27T15:07:21.612Z,63.11
2023-02-27T15:09:47.950Z,62.81
2023-02-27T15:12:14.258Z,62.86
2023-02-27T15:14:40.611Z,62.69
2023-02-27T15:17:06.930Z,63.24
2023-02-27T15:19:33.240Z,62.34
2023-02-27T15:21:59.573Z,62.66
2023-02-27T15:24:25.867Z,63.17
2023-02-27T15:26:52.198Z,62.93
2023-02-27T15:29:18.499Z,64.33
2023-02-27T15:31:44.828Z,63.07
2023-02-27T15:34:11.164Z,62.38
2023-02-27T15:36:37.453Z,61.83
2023-02-27T15:39:03.741Z,62.37
2023-02-27T15:41:30.091Z,62.79
2023-02-27T15:43:56.416Z,62.97
2023-02-27T15:46:22.839Z,63.29
2023-02-27T15:48:49.239Z,62.91
2023-02-27T15:51:15.533Z,62.08
2023-02-27T15:53:42.891Z,61.46
2023-02-27T15:56:09.292Z,62.14
2023-02-27T15:58:35.626Z,62.27
2023-02-27T16:01:02.073Z,62.39
2023-02-27T16:03:28.459Z,62.48
2023-02-27T16:05:54.814Z,63.75
2023-02-27T16:08:21.132Z,63.71
2023-02-27T16:10:47.454Z,64.39
2023-02-27T16:13:13.762Z,64.11
2023-02-27T16:15:40.092Z,64.16
2023-02-27T16:18:06.413Z,63.59
2023-02-27T16:20:32.708Z,63.48
2023-02-27T16:22:58.990Z,63.85
2023-02-27T16:25:25.280Z,63.57
2023-02-27T16:27:51.568Z,64.59
2023-02-27T16:30:17.850Z,64.81
2023-02-27T16:32:44.357Z,64.16
2023-02-27T16:35:10.697Z,64.14
2023-02-27T16:37:36.983Z,64.13
2023-02-27T16:40:03.296Z,63.99
2023-02-27T16:42:29.583Z,64.23
2023-02-27T16:44:55.865Z,64.14
2023-02-27T16:47:22.151Z,65.15
2023-02-27T16:49:48.441Z,64.39
2023-02-27T16:52:14.727Z,64.63
2023-02-27T16:54:41.112Z,64.37
2023-02-27T16:57:07.400Z,65.13
2023-02-27T16:59:33.679Z,66.22
2023-02-27T17:01:59.994Z,67.26
2023-02-27T17:04:26.396Z,67.04
2023-02-27T17:06:52.770Z,66.51
2023-02-27T17:09:19.082Z,66.55
2023-02-27T17:11:45.365Z,66.36
2023-02-27T17:14:11.693Z,65.89
2023-02-27T17:16:38.070Z,67.56
2023-02-27T17:19:04.410Z,67.23
2023-02-27T17:21:30.689Z,66.70
2023-02-27T17:23:56.992Z,67.13
2023-02-27T17:26:23.295Z,65.96
2023-02-27T17:28:49.592Z,66.11
2023-02-27T17:31:15.900Z,65.26
2023-02-27T17:33:42.188Z,65.00
2023-02-27T17:36:08.484Z,65.91
2023-02-27T17:38:34.782Z,64.37
2023-02-27T17:41:01.064Z,65.39
2023-02-27T17:43:27.342Z,65.02
2023-02-27T17:45:53.727Z,67.75
2023-02-27T17:48:20.022Z,66.85
2023-02-27T17:50:46.307Z,68.85
2023-02-27T17:53:12.621Z,70.02
2023-02-27T17:55:40.167Z,70.38
2023-02-27T17:58:06.651Z,69.90
2023-02-27T18:00:33.005Z,68.39
2023-02-27T18:02:59.330Z,69.27
2023-02-27T18:05:25.676Z,68.20
2023-02-27T18:07:54.032Z,68.06
2023-02-27T18:10:21.624Z,68.11
2023-02-27T18:12:47.897Z,68.08
2023-02-27T18:15:14.194Z,68.32
2023-02-27T18:17:40.463Z,68.55
2023-02-27T18:20:06.730Z,67.84
2023-02-27T18:22:33.045Z,67.29
2023-02-27T18:24:59.344Z,67.85
2023-02-27T18:27:25.619Z,66.74
2023-02-27T18:29:51.915Z,66.63
2023-02-27T18:32:18.239Z,67.08
2023-02-27T18:34:44.573Z,69.00
2023-02-27T18:37:10.907Z,68.34
2023-02-27T18:39:37.219Z,68.11
2023-02-27T18:42:05.868Z,67.39
2023-02-27T18:44:32.931Z,68.17
2023-02-27T18:46:59.240Z,68.44
2023-02-27T18:49:25.546Z,67.45
2023-02-27T18:51:51.852Z,68.62
2023-02-27T18:54:18.125Z,68.29
2023-02-27T18:56:44.428Z,68.63
2023-02-27T18:59:10.732Z,67.55
2023-02-27T19:01:37.102Z,69.63
2023-02-27T19:04:03.565Z,68.91
2023-02-27T19:06:30.462Z,67.11
2023-02-27T19:08:56.954Z,67.44
2023-02-27T19:11:23.237Z,68.86
2023-02-27T19:13:49.577Z,66.56
2023-02-27T19:16:15.929Z,66.82
2023-02-27T19:18:42.288Z,66.62
2023-02-27T19:21:08.623Z,67.40
2023-02-27T19:23:34.917Z,68.21
2023-02-27T19:26:01.210Z,67.38
2023-02-27T19:28:27.527Z,67.89
2023-02-27T19:30:53.821Z,66.05
2023-02-27T19:33:20.102Z,67.07
2023-02-27T19:35:46.441Z,67.18
2023-02-27T19:38:12.737Z,66.57
2023-02-27T19:40:39.026Z,66.28
2023-02-27T19:43:05.332Z,66.92
2023-02-27T19:45:31.618Z,65.99
2023-02-27T19:47:57.906Z,67.06
2023-02-27T19:50:24.202Z,66.32
2023-02-27T19:52:50.496Z,64.87
2023-02-27T19:55:16.796Z,65.09
2023-02-27T19:57:43.107Z,66.15
2023-02-27T20:00:09.442Z,64.77
2023-02-27T20:02:35.751Z,65.07
2023-02-27T20:05:02.056Z,65.11
2023-02-27T20:07:28.328Z,64.91
2023-02-27T20:09:54.618Z,65.10
2023-02-27T20:12:20.953Z,64.08
2023-02-27T20:14:47.228Z,64.61
2023-02-27T20:17:13.504Z,64.58
2023-02-27T20:19:39.802Z,64.80
2023-02-27T20:22:06.094Z,64.98
2023-02-27T20:24:32.383Z,65.63
2023-02-27T20:26:59.243Z,65.17
2023-02-27T20:29:25.630Z,64.90
2023-02-27T20:31:51.992Z,65.04
2023-02-27T20:34:18.386Z,64.53
2023-02-27T20:36:44.694Z,64.00
2023-02-27T20:39:10.990Z,64.83
2023-02-27T20:41:37.299Z,66.22
2023-02-27T20:44:03.574Z,66.13
2023-02-27T20:46:29.897Z,67.51
2023-02-27T20:48:56.212Z,67.74
2023-02-27T20:51:22.493Z,68.06
2023-02-27T20:53:48.773Z,64.54
2023-02-27T20:56:15.074Z,64.48
2023-02-27T20:58:41.379Z,64.86
2023-02-27T21:01:07.693Z,65.78
2023-02-27T21:03:38.614Z,66.08
2023-02-27T21:06:05.155Z,65.56
2023-02-27T21:08:31.427Z,65.93
2023-02-27T21:10:57.736Z,66.60
2023-02-27T21:13:24.040Z,66.52
2023-02-27T21:15:50.358Z,66.62
2023-02-27T21:18:16.839Z,66.96
2023-02-27T21:20:43.123Z,67.84
2023-02-27T21:23:09.401Z,68.72
2023-02-27T21:25:35.706Z,67.65
2023-02-27T21:28:02.062Z,67.78
2023-02-27T21:30:28.366Z,66.78
2023-02-27T21:32:54.676Z,65.99
2023-02-27T21:35:20.961Z,66.41
2023-02-27T21:37:47.259Z,66.43
2023-02-27T21:40:13.579Z,66.60
2023-02-27T21:42:39.873Z,66.67
2023-02-27T21:45:06.151Z,66.83
2023-02-27T21:47:32.446Z,66.55
2023-02-27T21:49:58.743Z,66.72
2023-02-27T21:52:25.019Z,66.87
2023-02-27T21:54:51.316Z,67.48
2023-02-27T21:57:17.616Z,67.77
2023-02-27T21:59:43.906Z,68.39
2023-02-27T22:02:10.202Z,67.97
2023-02-27T22:04:36.475Z,69.81
2023-02-27T22:07:02.763Z,69.15
2023-02-27T22:09:29.075Z,68.92
2023-02-27T22:11:55.363Z,68.95
2023-02-27T22:14:21.637Z,68.46
2023-02-27T22:16:47.933Z,68.94
2023-02-27T22:19:14.237Z,68.97
2023-02-27T22:21:40.539Z,69.02
2023-02-27T22:24:06.883Z,68.93
2023-02-27T22:26:33.162Z,69.03
2023-02-27T22:28:59.472Z,68.66
2023-02-27T22:31:25.838Z,68.96
2023-02-27T22:33:52.156Z,69.66
2023-02-27T22:36:18.447Z,69.49
2023-02-27T22:38:44.768Z,68.83
2023-02-27T22:41:11.045Z,69.59
2023-02-27T22:43:37.337Z,69.28
2023-02-27T22:46:03.650Z,69.81
2023-02-27T22:48:29.946Z,69.31
2023-02-27T22:50:56.233Z,70.50
2023-02-27T22:53:22.551Z,69.74
2023-02-27T22:55:48.862Z,70.88
2023-02-27T22:58:15.156Z,69.44
2023-02-27T23:00:41.451Z,69.58
2023-02-27T23:03:07.755Z,70.48
2023-02-27T23:05:34.031Z,70.07
2023-02-27T23:08:00.324Z,70.35
2023-02-27T23:10:26.597Z,70.88
2023-02-27T23:12:52.877Z,71.31
2023-02-27T23:15:19.256Z,70.55
2023-02-27T23:17:56.524Z,70.61
2023-02-27T23:20:24.525Z,70.60
2023-02-27T23:22:50.813Z,70.80
2023-02-27T23:25:17.103Z,70.35
2023-02-27T23:27:43.450Z,70.78
2023-02-27T23:30:09.745Z,70.44
2023-02-27T23:32:36.040Z,70.38
2023-02-27T23:35:02.382Z,70.27
2023-02-27T23:37:28.665Z,70.45
2023-02-27T23:39:54.949Z,70.76
2023-02-27T23:42:21.243Z,70.26
2023-02-27T23:44:47.525Z,71.03
2023-02-27T23:47:13.819Z,70.53
2023-02-27T23:49:40.142Z,70.51
2023-02-27T23:52:06.439Z,70.01
2023-02-27T23:54:32.731Z,69.86
2023-02-27T23:56:59.039Z,70.36
2023-02-27T23:59:25.332Z,70.49
